Cerberus, Victoria

7:09 AM AEST on August 01, 2015 (GMT +1000)
Crib Point | | Change Station
CLOSE
Current Station
Personal Weather Station
Location: Crib Point, VICTORIA
Elevation: 95 ft
Nearby Weather Stations

Elev 95 ft 38.36 °S, 145.20 °E | Updated 11 seconds ago

Light Rain Showers
Light Showers Rain
50.0 °F
Feels Like 48 °F
N
5.4
Wind Variable Wind from NNW
Gusts 16.8 mph

Today
High -- | Low -- °F
--% Chance of Precip.
Yesterday
High -- | Low -- °F
Precip. -- in
7:21 AM 5:30 PM
Full, 100% visible
Pressure 29.80 in
Visibility 6.2 miles
Clouds Mostly Cloudy 3000 ft
Overcast 3700 ft
Overcast 4400 ft
Windchill 48 °F
Dew Point 50 °F
Humidity 99%
Rainfall 0.11 in
Snow Depth Not available.
UV 0 out of 12
Pollen Not available.
Air Quality Not available.
Flu Activity Not available.
METAR YMAV 312100Z AUTO 32013KT 9999 -SHRA BKN030 OVC037 OVC044 12/08 Q1009

More Conditions Fewer Conditions

Pressure 29.80 in
Visibility 6.2 miles
Clouds Mostly Cloudy 3000 ft
Overcast 3700 ft
Overcast 4400 ft
Windchill 48 °F
Dew Point 50 °F
Humidity 99%
Rainfall 0.11 in
Snow Depth Not available.
UV 0 out of 12
Pollen Not available.
Air Quality Not available.
Flu Activity Not available.
METAR YMAV 312100Z AUTO 32013KT 9999 -SHRA BKN030 OVC037 OVC044 12/08 Q1009

More Conditions Fewer Conditions

10-Day Weather Forecast

×

Almanac

Astronomy

Aug. 01, 2015 Rise Set
Actual Time
Civil Twilight
Nautical Twilight
Astronomical Twilight
Moon
Length of Visible Light
Length of Day
Tomorrow will be .
, % of the Moon is Illuminated

Today's Extremes

Country Highs Country Lows

Community

WunderPhotos

Upload Photos

1,842,746 photos uploaded!

WunderBlogs® & News

Nearby

Air Quality

  Air Quality AQ Index Pollutant
Not available.

Snow Depth

Station Depth Elevation

Earthquake Activity

City Distance Mag. Time & Date
Minimum magnitude displayed is 2.5.

Coastal Water Temperatures

Place Temperature

Stations

Nearby Weather Stations

Station Location Temp. Windchill Dew Point Humidity Wind Precip. Elev Updated Type